createdAt,value
2023-07-12T00:03:20.136Z,24.44
2023-07-12T00:08:26.108Z,24.43
2023-07-12T00:13:28.934Z,24.49
2023-07-12T00:18:32.141Z,24.08
2023-07-12T00:23:36.605Z,24.26
2023-07-12T00:28:39.425Z,24.61
2023-07-12T00:33:42.634Z,24.12
2023-07-12T00:38:46.908Z,23.29
2023-07-12T00:43:55.533Z,22.80
2023-07-12T00:48:58.450Z,22.54
2023-07-12T00:54:03.122Z,22.45
2023-07-12T00:59:09.297Z,22.12
2023-07-12T01:04:15.997Z,22.17
2023-07-12T01:09:20.471Z,21.76
2023-07-12T01:14:23.307Z,21.65
2023-07-12T01:19:26.788Z,21.76
2023-07-12T01:24:33.142Z,21.84
2023-07-12T01:29:37.349Z,21.58
2023-07-12T01:34:40.345Z,22.00
2023-07-12T01:39:44.658Z,21.85
2023-07-12T01:44:48.756Z,22.20
2023-07-12T01:49:54.111Z,22.10
2023-07-12T01:54:58.967Z,21.44
2023-07-12T02:00:01.838Z,21.47
2023-07-12T02:05:19.833Z,21.28
2023-07-12T02:10:25.349Z,21.13
2023-07-12T02:15:28.184Z,21.08
2023-07-12T02:20:31.752Z,21.29
2023-07-12T02:25:36.097Z,21.22
2023-07-12T02:30:44.520Z,21.40
2023-07-12T02:35:47.436Z,21.63
2023-07-12T02:40:51.635Z,21.72
2023-07-12T02:45:54.528Z,21.42
2023-07-12T02:50:57.383Z,21.17
2023-07-12T02:56:01.680Z,21.35
2023-07-12T03:01:04.882Z,21.48
2023-07-12T03:06:10.891Z,21.70
2023-07-12T03:11:16.883Z,21.63
2023-07-12T03:16:19.746Z,21.43
2023-07-12T03:21:22.736Z,21.24
2023-07-12T03:26:27.014Z,21.60
2023-07-12T03:31:31.100Z,21.60
2023-07-12T03:36:34.095Z,21.53
2023-07-12T03:41:38.338Z,21.49
2023-07-12T03:46:41.402Z,21.61
2023-07-12T03:51:44.278Z,21.54
2023-07-12T03:56:48.489Z,21.56
2023-07-12T04:01:51.490Z,21.60
2023-07-12T04:06:54.315Z,21.54
2023-07-12T04:11:58.600Z,21.69
2023-07-12T04:17:01.487Z,21.91
2023-07-12T04:22:04.633Z,21.88
2023-07-12T04:27:08.946Z,21.62
2023-07-12T04:32:11.783Z,21.85
2023-07-12T04:37:14.824Z,21.90
2023-07-12T04:42:20.781Z,21.84
2023-07-12T04:47:24.763Z,21.57
2023-07-12T04:52:27.720Z,21.83
2023-07-12T04:57:32.389Z,21.82
2023-07-12T05:02:35.374Z,21.58
2023-07-12T05:07:38.279Z,21.48
2023-07-12T05:12:43.443Z,21.51
2023-07-12T05:17:46.596Z,21.91
2023-07-12T05:22:49.582Z,21.58
2023-07-12T05:27:53.775Z,22.08
2023-07-12T05:32:56.604Z,22.05
2023-07-12T05:38:01.554Z,21.83
2023-07-12T05:43:06.121Z,21.78
2023-07-12T05:48:09.064Z,21.73
2023-07-12T05:53:12.289Z,22.07
2023-07-12T05:58:16.470Z,22.24
2023-07-12T06:03:19.532Z,22.46
2023-07-12T06:08:23.162Z,22.40
2023-07-12T06:13:27.349Z,22.95
2023-07-12T06:18:31.396Z,23.16
2023-07-12T06:23:34.472Z,22.45
2023-07-12T06:28:39.879Z,22.75
2023-07-12T06:33:44.086Z,22.91
2023-07-12T06:38:47.635Z,23.21
2023-07-12T06:43:51.843Z,23.67
2023-07-12T06:48:54.866Z,23.65
2023-07-12T06:53:57.696Z,23.57
2023-07-12T06:59:01.892Z,23.69
2023-07-12T07:04:05.281Z,23.46
2023-07-12T07:09:08.168Z,24.23
2023-07-12T07:14:12.495Z,23.80
2023-07-12T07:19:15.366Z,23.30
2023-07-12T07:24:18.400Z,23.63
2023-07-12T07:29:22.863Z,23.47
2023-07-12T07:34:25.690Z,23.89
2023-07-12T07:39:28.632Z,25.34
2023-07-12T07:44:32.936Z,27.98
2023-07-12T07:49:35.714Z,29.19
2023-07-12T07:54:40.588Z,27.55
2023-07-12T07:59:47.102Z,29.70
2023-07-12T08:04:57.649Z,29.64
2023-07-12T08:10:00.752Z,29.02
2023-07-12T08:15:05.453Z,28.55
2023-07-12T08:20:09.901Z,28.16
2023-07-12T08:25:12.915Z,28.86
2023-07-12T08:30:17.108Z,27.91
2023-07-12T08:35:21.798Z,27.23
2023-07-12T08:40:28.936Z,27.11
2023-07-12T08:45:33.855Z,26.88
2023-07-12T08:50:41.483Z,27.32
2023-07-12T08:55:44.809Z,26.57
2023-07-12T09:00:53.180Z,26.45
2023-07-12T09:05:56.032Z,26.56
2023-07-12T09:10:59.288Z,27.23
2023-07-12T09:16:04.509Z,26.75
2023-07-12T09:21:15.778Z,27.05
2023-07-12T09:26:24.782Z,27.96
2023-07-12T09:31:32.398Z,28.25
2023-07-12T09:36:37.321Z,27.52
2023-07-12T09:41:48.814Z,27.31
2023-07-12T09:47:02.761Z,26.76
2023-07-12T09:52:14.222Z,27.46
2023-07-12T09:57:21.919Z,27.14
2023-07-12T10:02:33.756Z,27.19
2023-07-12T10:07:50.961Z,27.71
2023-07-12T10:13:02.981Z,27.59
2023-07-12T10:18:09.869Z,27.29
2023-07-12T10:23:14.500Z,27.40
2023-07-12T10:28:24.932Z,27.99
2023-07-12T10:33:34.520Z,28.54
2023-07-12T10:38:37.313Z,27.76
2023-07-12T10:43:45.787Z,27.47
2023-07-12T10:48:52.205Z,28.28
2023-07-12T10:53:57.549Z,28.28
2023-07-12T10:59:02.460Z,28.34
2023-07-12T11:04:12.385Z,28.51
2023-07-12T11:09:15.219Z,28.12
2023-07-12T11:14:26.689Z,29.02
2023-07-12T11:19:38.715Z,29.01
2023-07-12T11:24:49.800Z,28.43
2023-07-12T11:29:57.481Z,28.92
2023-07-12T11:35:05.647Z,28.67
2023-07-12T11:40:18.069Z,28.78
2023-07-12T11:45:23.922Z,29.21
2023-07-12T11:50:30.352Z,28.07
2023-07-12T11:55:37.042Z,28.60
2023-07-12T12:00:40.583Z,27.25
2023-07-12T12:05:45.699Z,27.56
2023-07-12T12:10:50.172Z,27.90
2023-07-12T12:15:58.924Z,28.63
2023-07-12T12:21:06.394Z,27.80
2023-07-12T12:26:20.394Z,27.38
2023-07-12T12:31:25.014Z,27.83
2023-07-12T12:36:31.830Z,27.63
2023-07-12T12:41:41.674Z,27.29
2023-07-12T13:07:33.080Z,24.50
2023-07-12T13:18:18.486Z,22.00
2023-07-12T13:23:23.027Z,21.43
2023-07-12T13:28:25.992Z,21.52
2023-07-12T13:48:45.540Z,23.61
2023-07-12T13:53:50.172Z,23.97
2023-07-12T14:04:00.152Z,24.24
2023-07-12T14:09:04.731Z,24.49
2023-07-12T14:14:11.881Z,24.72
2023-07-12T14:19:14.739Z,25.24
2023-07-12T14:24:18.890Z,24.92
2023-07-12T14:34:27.500Z,25.44
2023-07-12T14:39:31.735Z,25.27
2023-07-12T14:44:34.965Z,25.40
2023-07-12T14:49:37.745Z,25.95
2023-07-12T14:54:57.385Z,25.68
2023-07-12T15:00:01.106Z,26.22
2023-07-12T15:05:04.275Z,26.01
2023-07-12T15:10:14.113Z,24.70
2023-07-12T15:15:20.898Z,23.67
2023-07-12T15:20:25.353Z,22.46
2023-07-12T15:25:31.661Z,21.92
2023-07-12T15:30:34.664Z,21.67
2023-07-12T15:35:37.870Z,21.56
2023-07-12T15:40:57.133Z,21.80
2023-07-12T15:46:01.466Z,21.70
2023-07-12T15:51:09.726Z,21.58
2023-07-12T15:56:17.961Z,21.93
2023-07-12T16:01:24.526Z,22.02
2023-07-12T16:06:28.028Z,22.59
2023-07-12T16:11:36.502Z,22.64
2023-07-12T16:16:39.497Z,22.44
2023-07-12T16:21:42.535Z,22.80
2023-07-12T16:26:47.062Z,22.74
2023-07-12T16:31:52.891Z,22.14
2023-07-12T16:36:57.258Z,22.48
2023-07-12T16:42:01.487Z,22.57
2023-07-12T16:47:04.814Z,22.14
2023-07-12T16:52:13.097Z,21.87
2023-07-12T16:57:21.737Z,22.32
2023-07-12T17:02:28.269Z,22.83
2023-07-12T17:07:31.300Z,22.49
2023-07-12T17:12:35.817Z,22.97
2023-07-12T17:17:38.632Z,22.60
2023-07-12T17:22:41.761Z,22.86
2023-07-12T17:27:45.956Z,23.12
2023-07-12T17:32:48.801Z,22.89
2023-07-12T17:37:52.086Z,22.82
2023-07-12T17:42:57.423Z,22.31
2023-07-12T17:48:00.417Z,22.34
2023-07-12T17:53:03.420Z,22.34
2023-07-12T17:58:07.573Z,22.56
2023-07-12T18:03:14.840Z,22.25
2023-07-12T18:08:19.667Z,22.10
2023-07-12T18:13:26.546Z,21.93
2023-07-12T18:18:30.113Z,21.59
2023-07-12T18:23:32.891Z,21.55
2023-07-12T18:28:37.027Z,21.82
2023-07-12T18:33:39.941Z,21.84
2023-07-12T18:38:42.891Z,21.47
2023-07-12T18:43:48.117Z,21.62
2023-07-12T18:48:51.323Z,21.43
2023-07-12T18:53:55.148Z,21.56
2023-07-12T18:59:01.530Z,21.44
2023-07-12T19:04:05.859Z,21.12
2023-07-12T19:09:08.960Z,20.86
2023-07-12T19:14:18.778Z,20.88
2023-07-12T19:19:22.470Z,20.87
2023-07-12T19:24:25.328Z,21.01
2023-07-12T19:29:29.717Z,20.97
2023-07-12T19:34:32.863Z,20.86
2023-07-12T19:39:35.725Z,20.93
2023-07-12T19:44:39.973Z,21.27
2023-07-12T19:49:43.442Z,20.97
2023-07-12T19:54:47.009Z,21.12
2023-07-12T19:59:51.208Z,20.79
2023-07-12T20:04:54.201Z,20.55
2023-07-12T20:09:57.568Z,20.59
2023-07-12T20:15:01.750Z,20.51
2023-07-12T20:20:06.070Z,20.49
2023-07-12T20:25:10.757Z,20.30
2023-07-12T20:30:15.462Z,20.02
2023-07-12T20:35:18.450Z,19.95
2023-07-12T20:40:21.295Z,20.06
2023-07-12T20:45:25.506Z,20.44
2023-07-12T20:50:28.409Z,20.08
2023-07-12T20:55:31.180Z,19.95
2023-07-12T21:00:47.736Z,20.20
2023-07-12T21:06:00.464Z,20.59
2023-07-12T21:11:04.609Z,20.52
2023-07-12T21:16:11.302Z,20.60
2023-07-12T21:21:14.461Z,20.50
2023-07-12T21:26:17.593Z,20.73
2023-07-12T21:31:22.949Z,20.71
2023-07-12T21:36:25.807Z,20.91
2023-07-12T21:41:28.688Z,20.74
2023-07-12T21:46:32.837Z,20.79
2023-07-12T21:51:35.828Z,20.80
2023-07-12T21:56:38.605Z,20.79
2023-07-12T22:01:42.762Z,20.81
2023-07-12T22:06:45.707Z,20.93
2023-07-12T22:11:48.492Z,21.23
2023-07-12T22:16:52.938Z,20.89
2023-07-12T22:22:04.691Z,20.74
2023-07-12T22:27:09.419Z,20.86
2023-07-12T22:32:13.559Z,20.57
2023-07-12T22:37:16.701Z,20.61
2023-07-12T22:42:19.507Z,20.43
2023-07-12T22:47:24.975Z,20.54
2023-07-12T22:52:28.258Z,20.32
2023-07-12T22:57:31.843Z,20.09
2023-07-12T23:02:36.153Z,20.29
2023-07-12T23:07:39.200Z,20.22
2023-07-12T23:12:42.167Z,20.45
2023-07-12T23:17:46.973Z,20.23
2023-07-12T23:22:49.820Z,19.95
2023-07-12T23:27:52.980Z,20.31
2023-07-12T23:32:57.146Z,20.35
2023-07-12T23:37:59.968Z,20.62
2023-07-12T23:43:02.797Z,20.40
2023-07-12T23:48:08.027Z,20.45
2023-07-12T23:53:11.384Z,20.26
2023-07-12T23:58:16.912Z,20.00
